Truth Or Consequences Municipal Airport
KTCS : now visible

Airfield :











YOU CAN JOIN US ON...

 
LOGIN :

Register | Disclaimer

   EN    FR    IT 

 









Legend :    VFR   Marginal VFR   IFR   Intensive IFR   Very Intensive IFR
Visi :
Ceiling :
>= 8 km
>= 3000ft
5 to 8 km
1000 to 3000 ft
1500m to 5 km
500 to 1000 ft
800 to 1500m
200 to 500 ft
< 800m
< 200 ft
Symbols :   Thunderstorms  Fog  Heavy snow  Heavy precipitations  Wind > 20 kt







- Airport Elevation : 4853 ft


KTCS - Truth Or Consequences Municipal

CURRENT METAR :
  • 180553Z AUTO 28005KT 10SM CLR 22/11 A3009 RMK AO2 SLP102 T02220111 10300 20222 51008 TSNO

EXPIRED METARs :
  • 180453Z AUTO 25005KT 10SM CLR 24/10 A3008 RMK AO2 SLP098 T02390100 TSNO
  • 180353Z AUTO 25005KT 10SM CLR 24/11 A3007 RMK AO2 SLP098 T02440111 TSNO

TAF KTCS
Valid from the 18 at 06:00 until the 19 at 06:00 UTC


180523Z 1806/1906 28005KT P6SM FEW250
FM182000 15007KT P6SM SCT070
FM190300 29005KT P6SM SCT250
No reported NOTAMs for that airfield.



MET'MAP, your aeronautical weather chart ! - Copyright ORBIFLY December 2007 - Disclaimer

ORBIFLY MET'MAP TEAM :

Programming & Development : Alexandra Zaïnal
Concept & Development : Baudouin d'Aumeries
Co-Development & Prog : Marc-Olivier Méhu
Technical & hardware support : Manuel Goepfert

Contact : metmap@orbifly.com




SOURCES & CREDITS :

   NOAA       Earth
Advisory